sensor_id;sensor_type;location;lat;lon;timestamp;P1;durP1;ratioP1;P2;durP2;ratioP2
29774;SDS011;16676;51.202;6.774;2022-09-30T00:02:03;57.42;;;31.38;;
29774;SDS011;16676;51.202;6.774;2022-09-30T00:06:05;54.85;;;31.52;;
29774;SDS011;16676;51.202;6.774;2022-09-30T00:10:08;52.72;;;29.70;;
29774;SDS011;16676;51.202;6.774;2022-09-30T00:14:13;51.33;;;29.88;;
29774;SDS011;16676;51.202;6.774;2022-09-30T00:18:17;54.10;;;30.15;;
29774;SDS011;16676;51.202;6.774;2022-09-30T00:22:19;51.72;;;28.65;;
29774;SDS011;16676;51.202;6.774;2022-09-30T00:26:21;53.45;;;29.52;;
29774;SDS011;16676;51.202;6.774;2022-09-30T00:30:26;50.65;;;29.17;;
29774;SDS011;16676;51.202;6.774;2022-09-30T00:34:27;52.53;;;29.33;;
29774;SDS011;16676;51.202;6.774;2022-09-30T00:38:29;52.95;;;29.42;;
29774;SDS011;16676;51.202;6.774;2022-09-30T00:42:32;60.40;;;30.25;;
29774;SDS011;16676;51.202;6.774;2022-09-30T00:46:36;51.17;;;28.35;;
29774;SDS011;16676;51.202;6.774;2022-09-30T00:50:39;49.72;;;28.20;;
29774;SDS011;16676;51.202;6.774;2022-09-30T00:54:45;52.60;;;28.08;;
29774;SDS011;16676;51.202;6.774;2022-09-30T00:58:48;50.22;;;29.08;;
29774;SDS011;16676;51.202;6.774;2022-09-30T01:02:55;51.08;;;29.08;;
29774;SDS011;16676;51.202;6.774;2022-09-30T01:06:58;48.42;;;26.85;;
29774;SDS011;16676;51.202;6.774;2022-09-30T01:11:01;51.33;;;27.27;;
29774;SDS011;16676;51.202;6.774;2022-09-30T01:15:03;47.65;;;26.60;;
29774;SDS011;16676;51.202;6.774;2022-09-30T01:19:15;46.78;;;26.17;;
29774;SDS011;16676;51.202;6.774;2022-09-30T01:23:42;48.58;;;27.80;;
29774;SDS011;16676;51.202;6.774;2022-09-30T01:28:03;48.80;;;26.52;;
29774;SDS011;16676;51.202;6.774;2022-09-30T01:32:30;45.72;;;25.42;;
29774;SDS011;16676;51.202;6.774;2022-09-30T01:36:54;46.70;;;25.52;;
29774;SDS011;16676;51.202;6.774;2022-09-30T01:41:07;46.72;;;26.00;;
29774;SDS011;16676;51.202;6.774;2022-09-30T01:45:14;46.25;;;25.55;;
29774;SDS011;16676;51.202;6.774;2022-09-30T01:49:22;42.38;;;25.02;;
29774;SDS011;16676;51.202;6.774;2022-09-30T01:53:34;45.15;;;24.63;;
29774;SDS011;16676;51.202;6.774;2022-09-30T01:57:41;44.67;;;26.30;;
29774;SDS011;16676;51.202;6.774;2022-09-30T02:01:51;43.72;;;25.10;;
29774;SDS011;16676;51.202;6.774;2022-09-30T02:06:00;44.00;;;25.37;;
29774;SDS011;16676;51.202;6.774;2022-09-30T02:10:07;42.85;;;23.77;;
29774;SDS011;16676;51.202;6.774;2022-09-30T02:14:13;43.80;;;25.33;;
29774;SDS011;16676;51.202;6.774;2022-09-30T02:18:20;42.00;;;24.40;;
29774;SDS011;16676;51.202;6.774;2022-09-30T02:22:29;40.30;;;23.15;;
29774;SDS011;16676;51.202;6.774;2022-09-30T02:26:40;40.75;;;24.00;;
29774;SDS011;16676;51.202;6.774;2022-09-30T02:30:46;40.92;;;24.05;;
29774;SDS011;16676;51.202;6.774;2022-09-30T02:34:52;38.92;;;22.90;;
29774;SDS011;16676;51.202;6.774;2022-09-30T02:39:00;40.63;;;23.30;;
29774;SDS011;16676;51.202;6.774;2022-09-30T02:43:06;44.53;;;23.33;;
29774;SDS011;16676;51.202;6.774;2022-09-30T02:47:11;36.60;;;22.52;;
29774;SDS011;16676;51.202;6.774;2022-09-30T02:51:16;39.80;;;23.73;;
29774;SDS011;16676;51.202;6.774;2022-09-30T02:55:25;41.50;;;23.73;;
29774;SDS011;16676;51.202;6.774;2022-09-30T02:59:31;37.10;;;21.70;;
29774;SDS011;16676;51.202;6.774;2022-09-30T03:03:34;38.25;;;23.48;;
29774;SDS011;16676;51.202;6.774;2022-09-30T03:07:39;37.25;;;22.00;;
29774;SDS011;16676;51.202;6.774;2022-09-30T03:11:43;38.42;;;22.17;;
29774;SDS011;16676;51.202;6.774;2022-09-30T03:15:51;36.08;;;21.40;;
29774;SDS011;16676;51.202;6.774;2022-09-30T03:20:17;37.15;;;21.90;;
29774;SDS011;16676;51.202;6.774;2022-09-30T03:24:40;38.75;;;22.05;;
29774;SDS011;16676;51.202;6.774;2022-09-30T03:28:57;36.10;;;20.98;;
29774;SDS011;16676;51.202;6.774;2022-09-30T03:33:07;36.28;;;21.73;;
29774;SDS011;16676;51.202;6.774;2022-09-30T03:37:12;35.58;;;21.08;;
29774;SDS011;16676;51.202;6.774;2022-09-30T03:41:22;37.13;;;21.40;;
29774;SDS011;16676;51.202;6.774;2022-09-30T03:49:34;33.58;;;19.98;;
29774;SDS011;16676;51.202;6.774;2022-09-30T03:53:39;37.90;;;21.08;;
29774;SDS011;16676;51.202;6.774;2022-09-30T03:57:43;33.80;;;20.23;;
29774;SDS011;16676;51.202;6.774;2022-09-30T04:01:46;32.75;;;20.05;;
29774;SDS011;16676;51.202;6.774;2022-09-30T04:05:48;33.50;;;19.70;;
29774;SDS011;16676;51.202;6.774;2022-09-30T04:09:50;34.53;;;20.50;;
29774;SDS011;16676;51.202;6.774;2022-09-30T04:13:52;32.22;;;19.95;;
29774;SDS011;16676;51.202;6.774;2022-09-30T04:17:55;32.33;;;19.30;;
29774;SDS011;16676;51.202;6.774;2022-09-30T04:21:58;31.88;;;19.20;;
29774;SDS011;16676;51.202;6.774;2022-09-30T04:26:00;33.92;;;19.67;;
29774;SDS011;16676;51.202;6.774;2022-09-30T04:30:02;31.35;;;18.55;;
29774;SDS011;16676;51.202;6.774;2022-09-30T04:34:06;32.65;;;18.98;;
29774;SDS011;16676;51.202;6.774;2022-09-30T04:38:09;33.67;;;19.70;;
29774;SDS011;16676;51.202;6.774;2022-09-30T04:42:11;31.73;;;18.63;;
29774;SDS011;16676;51.202;6.774;2022-09-30T04:46:13;31.92;;;18.50;;
29774;SDS011;16676;51.202;6.774;2022-09-30T04:50:17;28.70;;;18.30;;
29774;SDS011;16676;51.202;6.774;2022-09-30T04:54:19;30.77;;;17.83;;
29774;SDS011;16676;51.202;6.774;2022-09-30T04:58:21;29.08;;;17.77;;
29774;SDS011;16676;51.202;6.774;2022-09-30T05:02:23;29.13;;;17.15;;
29774;SDS011;16676;51.202;6.774;2022-09-30T05:06:27;27.05;;;17.42;;
29774;SDS011;16676;51.202;6.774;2022-09-30T05:10:29;27.30;;;17.10;;
29774;SDS011;16676;51.202;6.774;2022-09-30T05:14:31;26.27;;;17.13;;
29774;SDS011;16676;51.202;6.774;2022-09-30T05:18:34;27.15;;;17.17;;
29774;SDS011;16676;51.202;6.774;2022-09-30T05:22:37;25.95;;;16.23;;
29774;SDS011;16676;51.202;6.774;2022-09-30T05:26:39;27.75;;;16.77;;
29774;SDS011;16676;51.202;6.774;2022-09-30T05:30:41;29.45;;;17.38;;
29774;SDS011;16676;51.202;6.774;2022-09-30T05:34:44;23.98;;;15.38;;
29774;SDS011;16676;51.202;6.774;2022-09-30T05:38:50;25.95;;;16.92;;
29774;SDS011;16676;51.202;6.774;2022-09-30T05:42:52;25.80;;;16.17;;
29774;SDS011;16676;51.202;6.774;2022-09-30T05:46:57;23.90;;;14.90;;
29774;SDS011;16676;51.202;6.774;2022-09-30T05:50:59;28.20;;;16.33;;
29774;SDS011;16676;51.202;6.774;2022-09-30T05:55:03;26.40;;;15.70;;
29774;SDS011;16676;51.202;6.774;2022-09-30T05:59:05;25.77;;;15.63;;
29774;SDS011;16676;51.202;6.774;2022-09-30T06:03:07;23.05;;;14.80;;
29774;SDS011;16676;51.202;6.774;2022-09-30T06:07:09;25.08;;;16.05;;
29774;SDS011;16676;51.202;6.774;2022-09-30T06:11:14;24.67;;;15.48;;
29774;SDS011;16676;51.202;6.774;2022-09-30T06:15:18;24.48;;;14.43;;
29774;SDS011;16676;51.202;6.774;2022-09-30T06:19:19;21.77;;;13.07;;
29774;SDS011;16676;51.202;6.774;2022-09-30T06:23:21;14.07;;;8.15;;
29774;SDS011;16676;51.202;6.774;2022-09-30T06:27:25;12.10;;;6.38;;
29774;SDS011;16676;51.202;6.774;2022-09-30T06:31:27;10.27;;;5.65;;
29774;SDS011;16676;51.202;6.774;2022-09-30T06:35:30;9.55;;;4.70;;
29774;SDS011;16676;51.202;6.774;2022-09-30T06:39:32;6.65;;;4.55;;
29774;SDS011;16676;51.202;6.774;2022-09-30T06:43:35;11.90;;;4.57;;
29774;SDS011;16676;51.202;6.774;2022-09-30T06:47:37;9.18;;;4.25;;
29774;SDS011;16676;51.202;6.774;2022-09-30T06:51:39;7.80;;;3.95;;
29774;SDS011;16676;51.202;6.774;2022-09-30T06:55:41;6.95;;;4.10;;
29774;SDS011;16676;51.202;6.774;2022-09-30T06:59:44;7.22;;;3.65;;
29774;SDS011;16676;51.202;6.774;2022-09-30T07:03:46;6.53;;;3.58;;
29774;SDS011;16676;51.202;6.774;2022-09-30T07:07:49;5.72;;;3.35;;
29774;SDS011;16676;51.202;6.774;2022-09-30T07:11:51;7.72;;;3.55;;
29774;SDS011;16676;51.202;6.774;2022-09-30T07:15:54;5.53;;;3.17;;
29774;SDS011;16676;51.202;6.774;2022-09-30T07:19:57;5.13;;;3.58;;
29774;SDS011;16676;51.202;6.774;2022-09-30T07:23:59;8.70;;;3.50;;
29774;SDS011;16676;51.202;6.774;2022-09-30T07:28:01;7.15;;;3.40;;
29774;SDS011;16676;51.202;6.774;2022-09-30T07:32:04;5.40;;;3.28;;
29774;SDS011;16676;51.202;6.774;2022-09-30T07:36:06;6.65;;;3.30;;
29774;SDS011;16676;51.202;6.774;2022-09-30T07:40:09;8.20;;;3.30;;
29774;SDS011;16676;51.202;6.774;2022-09-30T07:44:12;5.93;;;3.45;;
29774;SDS011;16676;51.202;6.774;2022-09-30T07:48:15;4.18;;;2.70;;
29774;SDS011;16676;51.202;6.774;2022-09-30T07:52:32;5.38;;;2.78;;
29774;SDS011;16676;51.202;6.774;2022-09-30T07:56:34;5.20;;;3.17;;
29774;SDS011;16676;51.202;6.774;2022-09-30T08:00:37;10.07;;;3.10;;
29774;SDS011;16676;51.202;6.774;2022-09-30T08:04:41;6.75;;;3.47;;
29774;SDS011;16676;51.202;6.774;2022-09-30T08:08:43;7.35;;;3.58;;
29774;SDS011;16676;51.202;6.774;2022-09-30T08:12:46;6.68;;;3.20;;
29774;SDS011;16676;51.202;6.774;2022-09-30T08:16:48;8.98;;;3.58;;
29774;SDS011;16676;51.202;6.774;2022-09-30T08:20:52;7.32;;;3.58;;
29774;SDS011;16676;51.202;6.774;2022-09-30T08:24:54;4.63;;;2.92;;
29774;SDS011;16676;51.202;6.774;2022-09-30T08:28:56;6.50;;;2.95;;
29774;SDS011;16676;51.202;6.774;2022-09-30T08:32:58;8.27;;;3.22;;
29774;SDS011;16676;51.202;6.774;2022-09-30T08:37:01;6.22;;;3.15;;
29774;SDS011;16676;51.202;6.774;2022-09-30T08:41:08;11.43;;;3.10;;
29774;SDS011;16676;51.202;6.774;2022-09-30T08:45:32;9.98;;;3.50;;
29774;SDS011;16676;51.202;6.774;2022-09-30T08:49:43;6.47;;;2.97;;
29774;SDS011;16676;51.202;6.774;2022-09-30T08:53:53;7.28;;;3.13;;
29774;SDS011;16676;51.202;6.774;2022-09-30T08:57:56;5.80;;;2.63;;
29774;SDS011;16676;51.202;6.774;2022-09-30T09:01:59;5.80;;;2.97;;
29774;SDS011;16676;51.202;6.774;2022-09-30T09:06:17;6.03;;;2.70;;
29774;SDS011;16676;51.202;6.774;2022-09-30T09:10:25;3.50;;;2.45;;
29774;SDS011;16676;51.202;6.774;2022-09-30T09:14:38;5.63;;;2.42;;
29774;SDS011;16676;51.202;6.774;2022-09-30T09:18:53;5.07;;;2.80;;
29774;SDS011;16676;51.202;6.774;2022-09-30T09:23:01;6.43;;;2.67;;
29774;SDS011;16676;51.202;6.774;2022-09-30T09:27:12;9.00;;;3.28;;
29774;SDS011;16676;51.202;6.774;2022-09-30T09:31:20;4.70;;;2.53;;
29774;SDS011;16676;51.202;6.774;2022-09-30T09:35:26;5.82;;;2.33;;
29774;SDS011;16676;51.202;6.774;2022-09-30T09:39:52;5.47;;;2.85;;
29774;SDS011;16676;51.202;6.774;2022-09-30T09:44:09;5.68;;;2.60;;
29774;SDS011;16676;51.202;6.774;2022-09-30T09:48:18;5.70;;;2.70;;
29774;SDS011;16676;51.202;6.774;2022-09-30T09:56:54;4.88;;;2.40;;
29774;SDS011;16676;51.202;6.774;2022-09-30T10:01:09;5.13;;;2.58;;
29774;SDS011;16676;51.202;6.774;2022-09-30T10:05:31;6.00;;;2.70;;
29774;SDS011;16676;51.202;6.774;2022-09-30T10:09:39;7.00;;;2.88;;
29774;SDS011;16676;51.202;6.774;2022-09-30T10:13:43;4.88;;;2.30;;
29774;SDS011;16676;51.202;6.774;2022-09-30T10:17:51;4.72;;;2.65;;
29774;SDS011;16676;51.202;6.774;2022-09-30T10:21:57;6.70;;;2.33;;
29774;SDS011;16676;51.202;6.774;2022-09-30T10:26:19;3.72;;;2.08;;
29774;SDS011;16676;51.202;6.774;2022-09-30T10:30:34;6.35;;;2.67;;
29774;SDS011;16676;51.202;6.774;2022-09-30T10:34:42;5.68;;;2.55;;
29774;SDS011;16676;51.202;6.774;2022-09-30T10:38:46;3.50;;;2.35;;
29774;SDS011;16676;51.202;6.774;2022-09-30T10:42:57;4.68;;;2.30;;
29774;SDS011;16676;51.202;6.774;2022-09-30T10:46:59;5.65;;;2.50;;
29774;SDS011;16676;51.202;6.774;2022-09-30T10:51:04;4.38;;;2.70;;
29774;SDS011;16676;51.202;6.774;2022-09-30T10:55:28;2.72;;;2.10;;
29774;SDS011;16676;51.202;6.774;2022-09-30T10:59:34;3.00;;;2.13;;
29774;SDS011;16676;51.202;6.774;2022-09-30T11:03:39;6.47;;;2.30;;
29774;SDS011;16676;51.202;6.774;2022-09-30T11:07:51;3.78;;;2.15;;
29774;SDS011;16676;51.202;6.774;2022-09-30T11:11:55;5.47;;;2.17;;
29774;SDS011;16676;51.202;6.774;2022-09-30T11:16:02;4.10;;;2.35;;
29774;SDS011;16676;51.202;6.774;2022-09-30T11:20:10;4.85;;;2.08;;
29774;SDS011;16676;51.202;6.774;2022-09-30T11:24:23;4.35;;;2.00;;
29774;SDS011;16676;51.202;6.774;2022-09-30T11:28:34;3.28;;;2.13;;
29774;SDS011;16676;51.202;6.774;2022-09-30T11:32:53;3.05;;;1.92;;
29774;SDS011;16676;51.202;6.774;2022-09-30T11:37:14;2.75;;;2.03;;
29774;SDS011;16676;51.202;6.774;2022-09-30T11:41:26;2.90;;;1.85;;
29774;SDS011;16676;51.202;6.774;2022-09-30T11:45:35;3.03;;;1.95;;
29774;SDS011;16676;51.202;6.774;2022-09-30T11:49:52;2.80;;;1.80;;
29774;SDS011;16676;51.202;6.774;2022-09-30T11:54:19;3.88;;;2.22;;
29774;SDS011;16676;51.202;6.774;2022-09-30T11:58:35;3.17;;;1.98;;
29774;SDS011;16676;51.202;6.774;2022-09-30T12:02:41;3.45;;;2.03;;
29774;SDS011;16676;51.202;6.774;2022-09-30T12:06:46;3.80;;;1.85;;
29774;SDS011;16676;51.202;6.774;2022-09-30T12:10:53;4.53;;;2.00;;
29774;SDS011;16676;51.202;6.774;2022-09-30T12:14:59;2.35;;;1.73;;
29774;SDS011;16676;51.202;6.774;2022-09-30T12:19:10;3.58;;;2.13;;
29774;SDS011;16676;51.202;6.774;2022-09-30T12:23:16;3.65;;;1.80;;
29774;SDS011;16676;51.202;6.774;2022-09-30T12:27:24;3.07;;;1.60;;
29774;SDS011;16676;51.202;6.774;2022-09-30T12:31:38;3.83;;;1.80;;
29774;SDS011;16676;51.202;6.774;2022-09-30T12:40:47;2.50;;;1.70;;
29774;SDS011;16676;51.202;6.774;2022-09-30T12:49:41;1.92;;;1.45;;
29774;SDS011;16676;51.202;6.774;2022-09-30T12:53:45;2.95;;;1.50;;
29774;SDS011;16676;51.202;6.774;2022-09-30T12:57:51;2.83;;;1.85;;
29774;SDS011;16676;51.202;6.774;2022-09-30T13:01:54;2.65;;;1.90;;
29774;SDS011;16676;51.202;6.774;2022-09-30T13:06:02;3.15;;;1.63;;
29774;SDS011;16676;51.202;6.774;2022-09-30T13:10:23;3.00;;;1.70;;
29774;SDS011;16676;51.202;6.774;2022-09-30T13:14:31;2.60;;;1.70;;
29774;SDS011;16676;51.202;6.774;2022-09-30T13:27:39;3.40;;;1.70;;
29774;SDS011;16676;51.202;6.774;2022-09-30T13:32:01;2.03;;;1.48;;
29774;SDS011;16676;51.202;6.774;2022-09-30T13:36:05;3.63;;;1.67;;
29774;SDS011;16676;51.202;6.774;2022-09-30T13:40:20;1.83;;;1.20;;
29774;SDS011;16676;51.202;6.774;2022-09-30T13:44:30;1.80;;;1.40;;
29774;SDS011;16676;51.202;6.774;2022-09-30T13:48:40;2.72;;;1.52;;
29774;SDS011;16676;51.202;6.774;2022-09-30T13:52:49;1.77;;;1.48;;
29774;SDS011;16676;51.202;6.774;2022-09-30T13:56:57;2.57;;;1.60;;
29774;SDS011;16676;51.202;6.774;2022-09-30T14:01:01;2.85;;;1.50;;
29774;SDS011;16676;51.202;6.774;2022-09-30T14:05:26;2.67;;;1.50;;
29774;SDS011;16676;51.202;6.774;2022-09-30T14:09:45;2.33;;;1.40;;
29774;SDS011;16676;51.202;6.774;2022-09-30T14:14:05;2.10;;;1.48;;
29774;SDS011;16676;51.202;6.774;2022-09-30T14:22:44;1.70;;;1.30;;
29774;SDS011;16676;51.202;6.774;2022-09-30T14:26:50;3.08;;;1.83;;
29774;SDS011;16676;51.202;6.774;2022-09-30T14:31:01;1.30;;;1.20;;
29774;SDS011;16676;51.202;6.774;2022-09-30T14:35:13;2.85;;;1.40;;
29774;SDS011;16676;51.202;6.774;2022-09-30T14:39:18;2.55;;;1.48;;
29774;SDS011;16676;51.202;6.774;2022-09-30T14:43:24;1.80;;;1.30;;
29774;SDS011;16676;51.202;6.774;2022-09-30T14:47:34;1.52;;;1.20;;
29774;SDS011;16676;51.202;6.774;2022-09-30T14:51:40;2.22;;;1.20;;
29774;SDS011;16676;51.202;6.774;2022-09-30T14:55:47;2.67;;;1.75;;
29774;SDS011;16676;51.202;6.774;2022-09-30T14:59:49;4.80;;;1.67;;
29774;SDS011;16676;51.202;6.774;2022-09-30T15:03:53;4.70;;;1.50;;
29774;SDS011;16676;51.202;6.774;2022-09-30T15:07:58;2.27;;;1.47;;
29774;SDS011;16676;51.202;6.774;2022-09-30T15:12:04;2.70;;;1.77;;
29774;SDS011;16676;51.202;6.774;2022-09-30T15:16:20;3.42;;;1.50;;
29774;SDS011;16676;51.202;6.774;2022-09-30T15:20:28;2.33;;;1.52;;
29774;SDS011;16676;51.202;6.774;2022-09-30T15:24:32;2.67;;;1.40;;
29774;SDS011;16676;51.202;6.774;2022-09-30T15:28:36;3.35;;;1.40;;
29774;SDS011;16676;51.202;6.774;2022-09-30T15:32:39;1.90;;;1.38;;
29774;SDS011;16676;51.202;6.774;2022-09-30T15:36:42;3.30;;;1.42;;
29774;SDS011;16676;51.202;6.774;2022-09-30T15:40:47;3.70;;;1.00;;
29774;SDS011;16676;51.202;6.774;2022-09-30T15:44:58;1.52;;;1.30;;
29774;SDS011;16676;51.202;6.774;2022-09-30T15:49:00;1.98;;;1.10;;
29774;SDS011;16676;51.202;6.774;2022-09-30T15:53:13;1.92;;;0.98;;
29774;SDS011;16676;51.202;6.774;2022-09-30T16:01:47;1.33;;;0.95;;
29774;SDS011;16676;51.202;6.774;2022-09-30T16:05:51;1.50;;;1.15;;
29774;SDS011;16676;51.202;6.774;2022-09-30T16:09:55;4.18;;;1.20;;
29774;SDS011;16676;51.202;6.774;2022-09-30T16:13:58;1.65;;;1.00;;
29774;SDS011;16676;51.202;6.774;2022-09-30T16:18:02;3.35;;;1.40;;
29774;SDS011;16676;51.202;6.774;2022-09-30T16:22:04;2.38;;;0.82;;
29774;SDS011;16676;51.202;6.774;2022-09-30T16:26:34;2.55;;;1.10;;
29774;SDS011;16676;51.202;6.774;2022-09-30T16:30:36;1.20;;;0.80;;
29774;SDS011;16676;51.202;6.774;2022-09-30T16:34:43;0.98;;;0.80;;
29774;SDS011;16676;51.202;6.774;2022-09-30T16:38:45;1.83;;;0.93;;
29774;SDS011;16676;51.202;6.774;2022-09-30T16:42:48;1.77;;;1.02;;
29774;SDS011;16676;51.202;6.774;2022-09-30T16:46:50;1.73;;;0.90;;
29774;SDS011;16676;51.202;6.774;2022-09-30T16:50:53;0.77;;;0.65;;
29774;SDS011;16676;51.202;6.774;2022-09-30T16:55:02;1.13;;;0.80;;
29774;SDS011;16676;51.202;6.774;2022-09-30T16:59:08;1.73;;;0.80;;
29774;SDS011;16676;51.202;6.774;2022-09-30T17:03:14;2.72;;;1.02;;
29774;SDS011;16676;51.202;6.774;2022-09-30T17:07:17;1.20;;;0.70;;
29774;SDS011;16676;51.202;6.774;2022-09-30T17:11:19;0.98;;;0.82;;
29774;SDS011;16676;51.202;6.774;2022-09-30T17:15:27;1.13;;;0.80;;
29774;SDS011;16676;51.202;6.774;2022-09-30T17:19:29;3.40;;;1.20;;
29774;SDS011;16676;51.202;6.774;2022-09-30T17:23:34;1.83;;;1.02;;
29774;SDS011;16676;51.202;6.774;2022-09-30T17:27:36;4.10;;;0.63;;
29774;SDS011;16676;51.202;6.774;2022-09-30T17:31:40;1.40;;;0.80;;
29774;SDS011;16676;51.202;6.774;2022-09-30T17:35:42;2.40;;;0.90;;
29774;SDS011;16676;51.202;6.774;2022-09-30T17:39:44;3.35;;;1.10;;
29774;SDS011;16676;51.202;6.774;2022-09-30T17:43:46;1.52;;;0.80;;
29774;SDS011;16676;51.202;6.774;2022-09-30T17:47:49;2.00;;;1.00;;
29774;SDS011;16676;51.202;6.774;2022-09-30T17:51:51;1.88;;;1.00;;
29774;SDS011;16676;51.202;6.774;2022-09-30T17:55:59;1.27;;;0.80;;
29774;SDS011;16676;51.202;6.774;2022-09-30T18:00:02;2.88;;;0.98;;
29774;SDS011;16676;51.202;6.774;2022-09-30T18:04:06;1.35;;;1.02;;
29774;SDS011;16676;51.202;6.774;2022-09-30T18:08:10;1.80;;;1.08;;
29774;SDS011;16676;51.202;6.774;2022-09-30T18:12:12;2.08;;;1.08;;
29774;SDS011;16676;51.202;6.774;2022-09-30T18:16:15;1.63;;;1.00;;
29774;SDS011;16676;51.202;6.774;2022-09-30T18:20:18;3.72;;;1.20;;
29774;SDS011;16676;51.202;6.774;2022-09-30T18:24:20;2.30;;;1.55;;
29774;SDS011;16676;51.202;6.774;2022-09-30T18:28:42;13.38;;;7.40;;
29774;SDS011;16676;51.202;6.774;2022-09-30T18:32:45;121.32;;;59.05;;
29774;SDS011;16676;51.202;6.774;2022-09-30T18:36:49;336.92;;;164.32;;
29774;SDS011;16676;51.202;6.774;2022-09-30T18:40:51;396.88;;;197.40;;
29774;SDS011;16676;51.202;6.774;2022-09-30T18:44:53;396.23;;;192.82;;
29774;SDS011;16676;51.202;6.774;2022-09-30T18:48:55;351.17;;;174.55;;
29774;SDS011;16676;51.202;6.774;2022-09-30T18:52:59;324.88;;;155.43;;
29774;SDS011;16676;51.202;6.774;2022-09-30T18:57:07;312.90;;;156.60;;
29774;SDS011;16676;51.202;6.774;2022-09-30T19:01:09;347.00;;;175.50;;
29774;SDS011;16676;51.202;6.774;2022-09-30T19:05:12;398.42;;;204.73;;
29774;SDS011;16676;51.202;6.774;2022-09-30T19:09:17;397.85;;;207.45;;
29774;SDS011;16676;51.202;6.774;2022-09-30T19:13:19;370.23;;;187.90;;
29774;SDS011;16676;51.202;6.774;2022-09-30T19:17:22;347.55;;;179.30;;
29774;SDS011;16676;51.202;6.774;2022-09-30T19:21:25;342.23;;;170.25;;
29774;SDS011;16676;51.202;6.774;2022-09-30T19:25:29;325.83;;;166.27;;
29774;SDS011;16676;51.202;6.774;2022-09-30T19:29:31;335.98;;;166.13;;
29774;SDS011;16676;51.202;6.774;2022-09-30T19:33:33;316.73;;;159.77;;
29774;SDS011;16676;51.202;6.774;2022-09-30T19:37:36;314.05;;;157.00;;
29774;SDS011;16676;51.202;6.774;2022-09-30T19:41:40;308.40;;;153.63;;
29774;SDS011;16676;51.202;6.774;2022-09-30T19:45:52;279.80;;;141.07;;
29774;SDS011;16676;51.202;6.774;2022-09-30T19:49:54;281.55;;;143.02;;
29774;SDS011;16676;51.202;6.774;2022-09-30T19:53:58;289.98;;;144.32;;
29774;SDS011;16676;51.202;6.774;2022-09-30T19:58:02;254.00;;;131.57;;
29774;SDS011;16676;51.202;6.774;2022-09-30T20:02:05;255.23;;;132.38;;
29774;SDS011;16676;51.202;6.774;2022-09-30T20:06:07;252.18;;;129.88;;
29774;SDS011;16676;51.202;6.774;2022-09-30T20:10:12;233.18;;;120.60;;
29774;SDS011;16676;51.202;6.774;2022-09-30T20:14:15;238.30;;;126.45;;
29774;SDS011;16676;51.202;6.774;2022-09-30T20:18:35;231.18;;;119.95;;
29774;SDS011;16676;51.202;6.774;2022-09-30T20:22:38;236.70;;;118.18;;
29774;SDS011;16676;51.202;6.774;2022-09-30T20:26:40;207.90;;;108.20;;
29774;SDS011;16676;51.202;6.774;2022-09-30T20:30:45;204.38;;;103.00;;
29774;SDS011;16676;51.202;6.774;2022-09-30T20:34:47;185.55;;;94.10;;
29774;SDS011;16676;51.202;6.774;2022-09-30T20:38:50;174.60;;;85.68;;
29774;SDS011;16676;51.202;6.774;2022-09-30T20:42:53;148.85;;;77.60;;
29774;SDS011;16676;51.202;6.774;2022-09-30T20:47:04;145.88;;;75.45;;
29774;SDS011;16676;51.202;6.774;2022-09-30T20:51:06;140.75;;;73.30;;
29774;SDS011;16676;51.202;6.774;2022-09-30T20:55:09;144.73;;;70.05;;
29774;SDS011;16676;51.202;6.774;2022-09-30T20:59:11;127.20;;;67.00;;
29774;SDS011;16676;51.202;6.774;2022-09-30T21:03:15;134.48;;;68.65;;
29774;SDS011;16676;51.202;6.774;2022-09-30T21:07:17;122.75;;;63.45;;
29774;SDS011;16676;51.202;6.774;2022-09-30T21:11:19;119.05;;;62.97;;
29774;SDS011;16676;51.202;6.774;2022-09-30T21:15:22;126.72;;;62.20;;
29774;SDS011;16676;51.202;6.774;2022-09-30T21:19:26;115.95;;;60.30;;
29774;SDS011;16676;51.202;6.774;2022-09-30T21:23:29;111.95;;;57.50;;
29774;SDS011;16676;51.202;6.774;2022-09-30T21:27:32;107.68;;;57.55;;
29774;SDS011;16676;51.202;6.774;2022-09-30T21:31:34;106.60;;;54.95;;
29774;SDS011;16676;51.202;6.774;2022-09-30T21:35:38;102.82;;;52.92;;
29774;SDS011;16676;51.202;6.774;2022-09-30T21:39:40;101.72;;;52.88;;
29774;SDS011;16676;51.202;6.774;2022-09-30T21:43:42;97.95;;;51.42;;
29774;SDS011;16676;51.202;6.774;2022-09-30T21:47:44;91.03;;;50.35;;
29774;SDS011;16676;51.202;6.774;2022-09-30T21:51:49;94.60;;;49.83;;
29774;SDS011;16676;51.202;6.774;2022-09-30T21:55:52;87.82;;;48.03;;
29774;SDS011;16676;51.202;6.774;2022-09-30T21:59:54;89.22;;;46.58;;
29774;SDS011;16676;51.202;6.774;2022-09-30T22:03:56;80.25;;;44.22;;
29774;SDS011;16676;51.202;6.774;2022-09-30T22:08:00;76.70;;;43.10;;
29774;SDS011;16676;51.202;6.774;2022-09-30T22:12:02;80.32;;;42.88;;
29774;SDS011;16676;51.202;6.774;2022-09-30T22:16:08;82.50;;;43.53;;
29774;SDS011;16676;51.202;6.774;2022-09-30T22:20:10;79.20;;;42.25;;
29774;SDS011;16676;51.202;6.774;2022-09-30T22:24:13;72.53;;;39.97;;
29774;SDS011;16676;51.202;6.774;2022-09-30T22:28:15;69.88;;;38.20;;
29774;SDS011;16676;51.202;6.774;2022-09-30T22:32:18;73.00;;;38.83;;
29774;SDS011;16676;51.202;6.774;2022-09-30T22:36:20;70.18;;;39.35;;
29774;SDS011;16676;51.202;6.774;2022-09-30T22:40:40;63.50;;;36.67;;
29774;SDS011;16676;51.202;6.774;2022-09-30T22:44:42;64.43;;;36.20;;
29774;SDS011;16676;51.202;6.774;2022-09-30T22:48:45;66.93;;;35.72;;
29774;SDS011;16676;51.202;6.774;2022-09-30T22:52:47;57.97;;;32.33;;
29774;SDS011;16676;51.202;6.774;2022-09-30T22:56:51;58.00;;;32.60;;
29774;SDS011;16676;51.202;6.774;2022-09-30T23:00:54;60.83;;;34.00;;
29774;SDS011;16676;51.202;6.774;2022-09-30T23:04:57;61.30;;;32.80;;
29774;SDS011;16676;51.202;6.774;2022-09-30T23:09:01;56.22;;;30.38;;
29774;SDS011;16676;51.202;6.774;2022-09-30T23:13:06;55.55;;;30.08;;
29774;SDS011;16676;51.202;6.774;2022-09-30T23:17:09;49.10;;;27.77;;
29774;SDS011;16676;51.202;6.774;2022-09-30T23:21:12;49.03;;;29.05;;
29774;SDS011;16676;51.202;6.774;2022-09-30T23:25:16;50.63;;;29.13;;
29774;SDS011;16676;51.202;6.774;2022-09-30T23:29:19;54.95;;;29.08;;
29774;SDS011;16676;51.202;6.774;2022-09-30T23:33:21;49.97;;;27.13;;
29774;SDS011;16676;51.202;6.774;2022-09-30T23:37:23;47.65;;;27.88;;
29774;SDS011;16676;51.202;6.774;2022-09-30T23:41:25;42.70;;;25.38;;
29774;SDS011;16676;51.202;6.774;2022-09-30T23:45:29;45.13;;;26.00;;
29774;SDS011;16676;51.202;6.774;2022-09-30T23:49:31;43.53;;;25.10;;
29774;SDS011;16676;51.202;6.774;2022-09-30T23:53:34;42.80;;;23.58;;
29774;SDS011;16676;51.202;6.774;2022-09-30T23:57:36;38.63;;;22.23;;
